Time;durP1;ratioP1;P1;durP2;ratioP2;P2;SDS_P1;SDS_P2;PMS_P1;PMS_P2;Temp;Humidity;BMP_temperature;BMP_pressure;BME280_temperature;BME280_humidity;BME280_pressure;Samples;Min_cycle;Max_cycle;Signal;HPM_P1;HPM_P2
2021/11/16 00:10:02;;;;;;;71.00;35.40;;;;;;;4.95;83.53;99749.19;422493;1303;108793;-42
2021/11/16 00:20:14;;;;;;;68.60;35.60;;;;;;;5.01;83.66;99742.65;422980;1303;97532;-41
2021/11/16 00:30:22;;;;;;;84.00;40.80;;;;;;;4.96;83.78;99735.95;422579;1304;108867;-41
2021/11/16 00:40:29;;;;;;;96.60;46.50;;;;;;;4.89;83.82;99731.20;422952;1304;97935;-41
2021/11/16 00:50:39;;;;;;;68.60;37.10;;;;;;;4.91;83.70;99737.24;422791;1303;111182;-41
2021/11/16 01:00:45;;;;;;;72.10;36.80;;;;;;;4.98;83.56;99730.90;422686;1303;107846;-42
2021/11/16 01:10:55;;;;;;;73.80;37.10;;;;;;;5.04;83.62;99729.25;418595;1306;5370363;-42
2021/11/16 01:21:01;;;;;;;;;;;;;;;5.05;83.76;99721.28;422780;1303;108907;-41
2021/11/16 01:31:09;;;;;;;97.50;44.90;;;;;;;4.93;83.86;99719.30;422600;1304;97952;-41
2021/11/16 01:41:18;;;;;;;72.70;38.10;;;;;;;4.87;83.88;99717.61;422912;1306;98029;-41
2021/11/16 01:51:27;;;;;;;68.30;37.50;;;;;;;4.94;83.74;99719.23;422505;1303;108930;-40
2021/11/16 02:01:35;;;;;;;63.80;31.90;;;;;;;5.06;83.74;99705.75;422954;1304;97485;-41
2021/11/16 02:11:41;;;;;;;89.20;40.60;;;;;;;5.02;83.75;99703.73;422724;1303;109880;-42
2021/11/16 02:21:50;;;;;;;93.40;42.20;;;;;;;4.89;83.90;99690.97;423753;1294;107902;-40
2021/11/16 02:31:59;;;;;;;82.70;40.10;;;;;;;4.90;83.81;99689.09;422866;1303;97730;-40
2021/11/16 02:42:09;;;;;;;77.80;37.20;;;;;;;4.90;83.81;99689.95;422762;1303;111738;-39
2021/11/16 02:52:17;;;;;;;83.50;39.60;;;;;;;4.90;83.96;99691.06;422728;1303;108757;-42
2021/11/16 03:02:25;;;;;;;77.30;36.80;;;;;;;4.95;83.99;99688.52;422843;1303;97990;-41
2021/11/16 03:12:33;;;;;;;84.70;39.10;;;;;;;4.96;83.92;99685.66;422774;1303;109135;-42
2021/11/16 03:22:44;;;;;;;98.20;42.80;;;;;;;4.87;84.13;99672.86;422978;1304;98189;-42
2021/11/16 03:42:57;;;;;;;88.60;41.00;;;;;;;4.81;84.17;99657.90;422797;1303;108936;-41
2021/11/16 03:53:06;;;;;;;86.60;40.50;;;;;;;4.87;84.18;99657.30;422814;1304;97968;-41
2021/11/16 04:03:15;;;;;;;84.20;42.60;;;;;;;4.92;84.31;99657.84;422787;1303;111076;-42
2021/11/16 04:13:22;;;;;;;90.80;41.30;;;;;;;5.05;84.41;99642.41;423093;1303;107959;-41
2021/11/16 04:23:30;;;;;;;121.90;52.80;;;;;;;5.02;84.32;99633.80;422708;1303;97546;-41
2021/11/16 04:43:44;;;;;;;95.10;43.60;;;;;;;4.93;84.41;99618.33;422888;1303;100305;-42
2021/11/16 05:04:08;;;;;;;81.80;38.70;;;;;;;5.13;84.56;99632.41;422902;1303;108803;-41
2021/11/16 05:14:15;;;;;;;81.40;39.50;;;;;;;5.13;84.53;99636.11;422910;1303;97555;-41
2021/11/16 05:34:30;;;;;;;90.20;43.50;;;;;;;4.98;84.62;99639.87;422840;1303;97539;-41
2021/11/16 05:44:38;;;;;;;80.90;39.70;;;;;;;4.97;84.69;99653.77;422719;1303;111109;-41
2021/11/16 05:54:45;;;;;;;87.90;37.90;;;;;;;4.96;84.81;99658.30;422643;1303;106979;-41
2021/11/16 06:04:53;;;;;;;108.60;49.40;;;;;;;4.94;85.00;99663.66;422804;1304;97565;-40
2021/11/16 06:15:00;;;;;;;97.60;41.30;;;;;;;4.97;84.92;99663.92;422789;1301;108893;-40
2021/11/16 06:25:09;;;;;;;113.70;44.80;;;;;;;4.96;85.17;99674.18;422802;1303;97504;-40
2021/11/16 06:35:16;;;;;;;114.90;48.70;;;;;;;5.03;85.30;99681.98;422830;1304;108211;-42
2021/11/16 06:45:23;;;;;;;112.00;45.00;;;;;;;5.17;85.27;99688.39;422804;1304;108804;-40
2021/11/16 06:55:31;;;;;;;108.60;43.80;;;;;;;5.19;85.24;99691.51;422750;1304;97929;-39
2021/11/16 07:05:46;;;;;;;132.50;53.40;;;;;;;5.30;85.27;99693.77;422893;1304;108857;-40
2021/11/16 07:15:54;;;;;;;129.10;51.70;;;;;;;5.38;85.43;99694.30;422722;1303;97960;-40
2021/11/16 07:36:10;;;;;;;93.50;43.80;;;;;;;5.46;85.29;99690.63;422786;1304;108557;-40
2021/11/16 07:46:17;;;;;;;91.00;41.30;;;;;;;5.66;85.16;99691.75;422853;1304;98006;-40
2021/11/16 07:56:25;;;;;;;83.80;41.70;;;;;;;5.86;85.24;99687.19;422719;1304;110564;-39
2021/11/16 08:06:36;;;;;;;82.30;37.50;;;;;;;5.98;85.16;99680.21;422717;1303;108824;-40
2021/11/16 08:16:59;;;;;;;98.90;43.70;;;;;;;6.10;85.20;99669.27;423076;1304;98041;-40
2021/11/16 08:27:11;;;;;;;88.00;40.70;;;;;;;6.31;85.13;99661.54;422927;1304;111362;-41
2021/11/16 08:37:20;;;;;;;84.90;41.60;;;;;;;6.45;84.91;99658.84;422710;1303;108908;-41
2021/11/16 08:47:26;;;;;;;74.10;34.60;;;;;;;6.94;85.02;99651.99;422981;1304;97968;-41
2021/11/16 08:57:33;;;;;;;83.70;40.50;;;;;;;7.23;84.58;99649.96;422930;1304;111165;-40
2021/11/16 09:07:47;;;;;;;83.10;41.10;;;;;;;7.32;84.25;99650.71;422995;1303;108154;-40
2021/11/16 09:48:56;;;;;;;84.10;40.00;;;;;;;8.24;82.39;99605.58;422942;1303;111089;-41
2021/11/16 09:59:04;;;;;;;84.20;41.90;;;;;;;8.34;81.04;99597.04;422974;1307;106765;-41
2021/11/16 10:09:13;;;;;;;84.00;41.90;;;;;;;8.47;81.51;99595.39;422835;1304;98234;-40
2021/11/16 10:19:20;;;;;;;69.80;37.00;;;;;;;8.78;81.52;99585.61;422779;1304;108869;-40
2021/11/16 10:29:27;;;;;;;68.00;36.00;;;;;;;9.04;80.61;99573.24;422841;1307;97006;-40
2021/11/16 10:59:58;;;;;;;68.60;35.60;;;;;;;9.49;79.18;99548.55;422886;1308;97972;-40
2021/11/16 11:10:03;;;;;;;57.20;29.40;;;;;;;9.68;78.92;99536.59;422474;1310;108904;-40
2021/11/16 11:30:18;;;;;;;60.70;30.70;;;;;;;9.78;78.12;99516.93;422977;1310;97584;-40
2021/11/16 11:40:40;;;;;;;55.40;26.90;;;;;;;9.82;77.95;99508.59;422812;1310;110120;-41
2021/11/16 11:50:49;;;;;;;40.70;22.80;;;;;;;9.88;77.62;99494.48;422640;1307;109151;-40
2021/11/16 12:00:59;;;;;;;48.40;26.40;;;;;;;9.92;77.07;99488.31;422786;1307;97842;-41
2021/11/16 12:11:08;;;;;;;44.00;25.50;;;;;;;9.89;76.76;99476.57;422731;1304;97962;-40
2021/11/16 12:21:25;;;;;;;49.10;25.80;;;;;;;9.85;76.06;99469.02;422938;1304;111528;-40
2021/11/16 12:31:33;;;;;;;48.10;26.00;;;;;;;9.79;75.83;99457.08;422856;1304;108839;-41
2021/11/16 12:41:42;;;;;;;45.10;23.60;;;;;;;9.74;75.66;99440.02;422910;1307;97981;-41
2021/11/16 12:51:53;;;;;;;41.90;20.40;;;;;;;9.80;75.27;99431.31;422847;1304;97926;-40
2021/11/16 13:02:03;;;;;;;42.30;25.80;;;;;;;9.82;75.21;99426.07;422862;1307;108935;-42
2021/11/16 13:12:31;;;;;;;46.80;26.60;;;;;;;9.74;74.91;99418.32;422731;1304;98182;-42
2021/11/16 13:32:55;;;;;;;39.90;21.40;;;;;;;9.52;73.88;99407.36;422770;1304;110241;-40
2021/11/16 13:43:05;;;;;;;44.20;25.80;;;;;;;9.37;73.75;99397.82;422826;1304;108877;-41
2021/11/16 13:53:12;;;;;;;45.90;26.00;;;;;;;9.18;73.96;99395.04;422756;1304;97952;-41
2021/11/16 14:03:22;;;;;;;54.20;27.20;;;;;;;8.95;73.63;99397.58;422792;1304;108593;-41
2021/11/16 14:13:32;;;;;;;59.20;32.70;;;;;;;8.67;73.66;99386.39;422630;1303;97958;-41
2021/11/16 14:23:45;;;;;;;54.30;31.40;;;;;;;8.42;73.94;99391.04;422661;1304;110789;-41
2021/11/16 14:33:54;;;;;;;73.70;40.00;;;;;;;8.11;74.13;99393.55;422710;1304;108932;-40
2021/11/16 14:44:01;;;;;;;107.50;45.50;;;;;;;7.83;74.27;99390.80;422797;1304;108829;-41
2021/11/16 14:54:12;;;;;;;85.30;46.40;;;;;;;7.58;74.39;99383.42;422810;1304;97711;-41
2021/11/16 15:04:17;;;;;;;98.50;52.50;;;;;;;7.36;74.73;99373.09;422613;1303;107790;-41
2021/11/16 15:14:28;;;;;;;173.30;77.40;;;;;;;7.08;75.02;99367.20;422579;1304;98627;-41
2021/11/16 15:35:08;;;;;;;159.90;81.50;;;;;;;6.42;75.52;99347.29;422681;1303;109102;-41
2021/11/16 16:06:14;;;;;;;128.10;65.50;;;;;;;5.98;76.15;99333.68;422541;1303;111111;-41
2021/11/16 16:16:20;;;;;;;165.70;79.20;;;;;;;5.81;76.54;99333.42;422836;1303;109083;-41
2021/11/16 16:26:28;;;;;;;150.70;68.20;;;;;;;5.50;76.58;99333.30;422896;1303;97998;-41
2021/11/16 16:36:38;;;;;;;134.40;64.70;;;;;;;5.10;76.77;99325.52;422725;1303;111098;-41
2021/11/16 16:46:46;;;;;;;110.40;62.90;;;;;;;4.96;77.01;99321.92;422841;1304;108176;-41
2021/11/16 16:56:55;;;;;;;120.80;62.70;;;;;;;4.91;77.40;99314.00;422821;1303;98057;-41
2021/11/16 17:07:02;;;;;;;;;;;;;;;4.82;77.49;99310.39;422724;1303;111161;-41
2021/11/16 17:17:10;;;;;;;80.50;42.70;;;;;;;4.72;78.14;99296.52;418968;1303;5383304;-41
2021/11/16 17:27:19;;;;;;;79.70;42.00;;;;;;;4.65;78.35;99296.33;422741;1303;96762;-41
2021/11/16 17:37:35;;;;;;;110.90;52.20;;;;;;;4.46;78.62;99295.39;422801;1304;108245;-41
2021/11/16 17:47:41;;;;;;;119.30;56.00;;;;;;;4.24;78.85;99288.36;422695;1303;98506;-40
2021/11/16 17:57:48;;;;;;;89.60;47.80;;;;;;;4.08;78.98;99290.05;422927;1303;111081;-43
2021/11/16 18:07:59;;;;;;;102.50;49.50;;;;;;;3.90;79.18;99274.25;422662;1304;109051;-40
2021/11/16 18:18:06;;;;;;;94.90;47.20;;;;;;;3.76;79.42;99263.06;422741;1303;97338;-41
2021/11/16 18:48:31;;;;;;;97.30;46.70;;;;;;;3.21;79.89;99252.50;422764;1304;110682;-40
2021/11/16 18:58:39;;;;;;;99.00;47.20;;;;;;;3.16;80.26;99249.18;422777;1303;108841;-40
2021/11/16 19:08:47;;;;;;;105.60;48.10;;;;;;;3.03;80.63;99240.45;422596;1303;98588;-40
2021/11/16 19:18:56;;;;;;;120.00;50.80;;;;;;;2.87;81.14;99236.11;422769;1303;108799;-40
2021/11/16 19:29:04;;;;;;;84.30;40.80;;;;;;;2.80;81.42;99228.85;422842;1303;97896;-40
2021/11/16 19:39:22;;;;;;;73.50;36.50;;;;;;;2.83;81.74;99230.27;422939;1303;111204;-41
2021/11/16 19:49:33;;;;;;;76.60;36.70;;;;;;;2.89;81.98;99224.42;422994;1304;108932;-40
2021/11/16 19:59:39;;;;;;;67.60;36.00;;;;;;;2.87;82.37;99225.20;422670;1303;97855;-40
2021/11/16 20:09:47;;;;;;;73.70;41.40;;;;;;;2.78;82.59;99231.50;422602;1303;108940;-40
2021/11/16 20:19:54;;;;;;;80.00;40.20;;;;;;;2.81;82.69;99224.05;422664;1303;98158;-41
2021/11/16 20:30:01;;;;;;;70.10;35.70;;;;;;;2.81;82.86;99219.16;422773;1303;109593;-40
2021/11/16 20:40:14;;;;;;;69.00;34.10;;;;;;;2.84;82.89;99223.38;422840;1303;108655;-40
2021/11/16 21:00:47;;;;;;;79.80;39.30;;;;;;;2.50;83.67;99219.25;422694;1303;108887;-41
2021/11/16 21:10:56;;;;;;;89.20;38.90;;;;;;;2.51;83.58;99223.30;422603;1303;97652;-41
2021/11/16 21:21:04;;;;;;;89.10;41.20;;;;;;;2.55;83.71;99219.25;422780;1303;111015;-40
2021/11/16 21:41:21;;;;;;;69.00;35.70;;;;;;;2.66;83.47;99217.01;422696;1306;97914;-40
2021/11/16 22:01:35;;;;;;;114.70;45.10;;;;;;;2.19;83.90;99223.06;422892;1304;98592;-40
2021/11/16 22:11:44;;;;;;;81.50;39.30;;;;;;;2.16;83.93;99224.08;422863;1303;98032;-40
2021/11/16 22:21:51;;;;;;;67.90;33.30;;;;;;;2.12;84.03;99219.10;422592;1303;108443;-40
2021/11/16 22:42:03;;;;;;;76.00;36.60;;;;;;;2.04;84.12;99208.66;422846;1303;111076;-40
2021/11/16 22:52:11;;;;;;;75.50;34.60;;;;;;;1.96;84.25;99203.56;422786;1303;109058;-40
